Time,TemperatureF,DewpointF,PressureIn,WindDirection,WindDirectionDegrees,WindSpeedMPH,WindSpeedGustMPH,Humidity,HourlyPrecipIn,Conditions,Clouds,dailyrainin,SoftwareType,DateUTC
2013-01-17 00:00:00,12.6,-6.7,30.15,NW,310,0.0,4.0,41,0.00,CLR,,0.00,WeatherDisplay:10.37,2013-01-17 06:00:00,
2013-01-17 00:10:00,12.2,-7.1,30.15,NNW,329,3.0,6.0,41,0.00,CLR,,0.00,WeatherDisplay:10.37,2013-01-17 06:10:00,
2013-01-17 00:20:00,11.8,-7.4,30.17,NNW,330,3.0,7.0,41,0.00,CLR,,0.00,WeatherDisplay:10.37,2013-01-17 06:20:00,
2013-01-17 00:30:00,11.3,-7.9,30.17,NW,322,2.0,6.0,41,0.00,CLR,,0.00,WeatherDisplay:10.37,2013-01-17 06:30:00,
2013-01-17 00:40:00,10.9,-8.2,30.17,NW,323,1.0,6.0,41,0.00,CLR,,0.00,WeatherDisplay:10.37,2013-01-17 06:40:00,
2013-01-17 00:50:00,10.8,-8.4,30.17,NW,312,2.0,6.0,41,0.00,CLR,,0.00,WeatherDisplay:10.37,2013-01-17 06:50:00,
2013-01-17 01:00:00,10.4,-8.7,30.17,NW,324,1.0,4.0,41,0.00,CLR,,0.00,WeatherDisplay:10.37,2013-01-17 07:00:00,
2013-01-17 01:10:00,10.2,-8.9,30.17,NNW,327,0.0,5.0,41,0.00,CLR,,0.00,WeatherDisplay:10.37,2013-01-17 07:10:00,
2013-01-17 01:20:00,10.2,-8.9,30.20,NW,307,2.0,4.0,41,0.00,CLR,,0.00,WeatherDisplay:10.37,2013-01-17 07:20:00,
2013-01-17 01:30:00,10.2,-8.9,30.20,NNW,327,0.0,6.0,41,0.00,CLR,,0.00,WeatherDisplay:10.37,2013-01-17 07:30:00,
2013-01-17 01:40:00,10.2,-8.9,30.20,NNW,346,2.0,3.0,41,0.00,CLR,,0.00,WeatherDisplay:10.37,2013-01-17 07:40:00,
2013-01-17 01:50:00,10.2,-8.9,30.20,NW,307,2.0,6.0,41,0.00,CLR,,0.00,WeatherDisplay:10.37,2013-01-17 07:50:00,
2013-01-17 02:00:00,10.4,-8.7,30.21,WNW,294,0.0,4.0,41,0.00,CLR,,0.00,WeatherDisplay:10.37,2013-01-17 08:00:00,
2013-01-17 02:10:00,10.2,-8.9,30.23,WNW,291,1.0,4.0,41,0.00,CLR,,0.00,WeatherDisplay:10.37,2013-01-17 08:10:00,
2013-01-17 02:20:00,10.0,-9.0,30.20,WNW,300,0.0,4.0,41,0.00,CLR,,0.00,WeatherDisplay:10.37,2013-01-17 08:20:00,
2013-01-17 02:30:00,10.0,-9.0,30.20,NW,305,0.0,4.0,41,0.00,CLR,,0.00,WeatherDisplay:10.37,2013-01-17 08:30:00,
2013-01-17 02:40:00,9.9,-9.2,30.23,WNW,300,0.0,4.0,41,0.00,CLR,,0.00,WeatherDisplay:10.37,2013-01-17 08:40:00,
2013-01-17 02:50:00,9.9,-9.2,30.20,WNW,301,3.0,4.0,41,0.00,CLR,,0.00,WeatherDisplay:10.37,2013-01-17 08:50:00,
2013-01-17 03:00:00,9.9,-9.2,30.20,NW,317,1.0,4.0,41,0.00,CLR,,0.00,WeatherDisplay:10.37,2013-01-17 09:00:00,
2013-01-17 03:10:00,9.7,-9.3,30.20,WNW,297,2.0,5.0,41,0.00,CLR,,0.00,WeatherDisplay:10.37,2013-01-17 09:10:00,
2013-01-17 03:20:00,9.7,-9.3,30.23,WNW,295,0.0,3.0,41,0.00,CLR,,0.00,WeatherDisplay:10.37,2013-01-17 09:20:00,
2013-01-17 03:30:00,9.7,-9.3,30.23,WNW,291,0.0,4.0,41,0.00,CLR,,0.00,WeatherDisplay:10.37,2013-01-17 09:30:00,
2013-01-17 03:40:00,9.7,-9.3,30.23,NW,304,2.0,4.0,41,0.00,CLR,,0.00,WeatherDisplay:10.37,2013-01-17 09:40:00,
2013-01-17 03:50:00,9.5,-9.5,30.23,WNW,292,2.0,6.0,41,0.00,CLR,,0.00,WeatherDisplay:10.37,2013-01-17 09:50:00,
2013-01-17 04:00:00,9.3,-9.7,30.23,WNW,298,2.0,4.0,41,0.00,CLR,,0.00,WeatherDisplay:10.37,2013-01-17 10:00:00,
2013-01-17 04:10:00,9.1,-9.8,30.23,West,281,2.0,6.0,41,0.00,CLR,,0.00,WeatherDisplay:10.37,2013-01-17 10:10:00,
2013-01-17 04:20:00,9.0,-10.0,30.23,WNW,290,0.0,4.0,41,0.00,CLR,,0.00,WeatherDisplay:10.37,2013-01-17 10:20:00,
2013-01-17 04:30:00,9.0,-10.0,30.23,WNW,287,1.0,4.0,41,0.00,CLR,,0.00,WeatherDisplay:10.37,2013-01-17 10:30:00,
2013-01-17 04:40:00,9.1,-9.8,30.23,West,280,2.0,6.0,41,0.00,CLR,,0.00,WeatherDisplay:10.37,2013-01-17 10:40:00,
2013-01-17 04:50:00,9.3,-9.7,30.26,West,269,0.0,6.0,41,0.00,CLR,,0.00,WeatherDisplay:10.37,2013-01-17 10:50:00,
2013-01-17 05:00:00,9.3,-9.7,30.25,WNW,298,0.0,4.0,41,0.00,CLR,,0.00,WeatherDisplay:10.37,2013-01-17 11:00:00,
2013-01-17 05:10:00,9.3,-9.7,30.23,WNW,288,0.0,4.0,41,0.00,CLR,,0.00,WeatherDisplay:10.37,2013-01-17 11:10:00,
2013-01-17 05:20:00,9.3,-9.7,30.23,WNW,293,0.0,6.0,41,0.00,CLR,,0.00,WeatherDisplay:10.37,2013-01-17 11:20:00,
2013-01-17 05:30:00,9.5,-9.5,30.23,West,273,1.0,4.0,41,0.00,CLR,,0.00,WeatherDisplay:10.37,2013-01-17 11:30:00,
2013-01-17 05:40:00,9.1,-9.8,30.26,West,269,1.0,4.0,41,0.00,CLR,,0.00,WeatherDisplay:10.37,2013-01-17 11:40:00,
2013-01-17 05:50:00,8.8,-10.2,30.26,West,278,0.0,4.0,41,0.00,CLR,,0.00,WeatherDisplay:10.37,2013-01-17 11:50:00,
2013-01-17 06:00:00,8.6,-10.3,30.26,West,262,1.0,5.0,41,0.00,CLR,,0.00,WeatherDisplay:10.37,2013-01-17 12:00:00,
2013-01-17 06:10:00,8.4,-10.5,30.26,WNW,290,0.0,3.0,41,0.00,CLR,,0.00,WeatherDisplay:10.37,2013-01-17 12:10:00,
2013-01-17 06:20:00,8.4,-10.5,30.26,WNW,297,0.0,3.0,41,0.00,CLR,,0.00,WeatherDisplay:10.37,2013-01-17 12:20:00,
2013-01-17 06:30:00,8.1,-10.8,30.26,WNW,289,2.0,4.0,41,0.00,CLR,,0.00,WeatherDisplay:10.37,2013-01-17 12:30:00,
2013-01-17 06:40:00,7.9,-11.0,30.26,West,273,0.0,0.0,41,0.00,CLR,,0.00,WeatherDisplay:10.37,2013-01-17 12:40:00,
2013-01-17 06:50:00,7.7,-11.2,30.26,West,275,0.0,3.0,41,0.00,CLR,,0.00,WeatherDisplay:10.37,2013-01-17 12:50:00,
2013-01-17 07:00:00,7.5,-11.3,30.26,WSW,245,0.0,3.0,41,0.00,CLR,,0.00,WeatherDisplay:10.37,2013-01-17 13:00:00,
2013-01-17 07:10:00,7.2,-11.6,30.26,WSW,247,0.0,0.0,41,0.00,CLR,,0.00,WeatherDisplay:10.37,2013-01-17 13:10:00,
2013-01-17 07:20:00,7.2,-11.6,30.26,WSW,247,0.0,0.0,41,0.00,CLR,,0.00,WeatherDisplay:10.37,2013-01-17 13:20:00,
2013-01-17 07:30:00,7.2,-11.6,30.26,WSW,252,0.0,3.0,41,0.00,CLR,,0.00,WeatherDisplay:10.37,2013-01-17 13:30:00,
2013-01-17 07:40:00,7.2,-11.6,30.26,West,261,0.0,2.0,41,0.00,CLR,,0.00,WeatherDisplay:10.37,2013-01-17 13:40:00,
2013-01-17 07:50:00,7.3,-11.5,30.26,West,259,0.0,4.0,41,0.00,CLR,,0.00,WeatherDisplay:10.37,2013-01-17 13:50:00,
2013-01-17 08:00:00,7.5,-11.3,30.26,West,265,1.0,5.0,41,0.00,CLR,,0.00,WeatherDisplay:10.37,2013-01-17 14:00:00,
2013-01-17 08:10:00,7.5,-11.3,30.26,WNW,293,2.0,4.0,41,0.00,CLR,,0.00,WeatherDisplay:10.37,2013-01-17 14:10:00,
2013-01-17 08:20:00,7.5,-11.3,30.29,West,264,3.0,5.0,41,0.00,CLR,,0.00,WeatherDisplay:10.37,2013-01-17 14:20:00,
2013-01-17 08:30:00,7.7,-11.2,30.29,West,262,2.0,4.0,41,0.00,CLR,,0.00,WeatherDisplay:10.37,2013-01-17 14:30:00,
2013-01-17 08:40:00,7.9,-11.0,30.29,WSW,250,2.0,3.0,41,0.00,CLR,,0.00,WeatherDisplay:10.37,2013-01-17 14:40:00,
2013-01-17 08:50:00,8.1,-10.8,30.29,West,269,1.0,4.0,41,0.00,CLR,,0.00,WeatherDisplay:10.37,2013-01-17 14:50:00,
2013-01-17 09:00:00,8.6,-10.3,30.29,WSW,246,1.0,3.0,41,0.00,CLR,,0.00,WeatherDisplay:10.37,2013-01-17 15:00:00,
2013-01-17 09:10:00,8.6,-10.3,30.29,West,262,1.0,5.0,41,0.00,CLR,,0.00,WeatherDisplay:10.37,2013-01-17 15:10:00,
2013-01-17 09:20:00,8.7,-10.2,30.29,WSW,251,1.0,5.0,41,0.00,CLR,,0.00,WeatherDisplay:10.37,2013-01-17 15:20:00,
2013-01-17 09:30:00,9.1,-9.8,30.29,WSW,253,1.0,4.0,41,0.00,CLR,,0.00,WeatherDisplay:10.37,2013-01-17 15:30:00,
2013-01-17 09:40:00,9.3,-9.7,30.29,West,267,0.0,5.0,41,0.00,CLR,,0.00,WeatherDisplay:10.37,2013-01-17 15:40:00,
2013-01-17 09:50:00,10.0,-9.0,30.29,SW,226,1.0,3.0,41,0.00,CLR,,0.00,WeatherDisplay:10.37,2013-01-17 15:50:00,
2013-01-17 10:00:00,10.3,-8.7,30.29,SW,225,1.0,4.0,41,0.00,CLR,,0.00,WeatherDisplay:10.37,2013-01-17 16:00:00,
2013-01-17 10:10:00,10.6,-8.5,30.29,SW,236,1.0,4.0,41,0.00,CLR,,0.00,WeatherDisplay:10.37,2013-01-17 16:10:00,
2013-01-17 10:20:00,10.9,-8.2,30.29,SW,230,0.0,3.0,41,0.00,CLR,,0.00,WeatherDisplay:10.37,2013-01-17 16:20:00,
2013-01-17 10:30:00,11.3,-7.9,30.29,SW,226,0.0,4.0,41,0.00,CLR,,0.00,WeatherDisplay:10.37,2013-01-17 16:30:00,
2013-01-17 10:40:00,11.3,-7.9,30.29,WSW,240,0.0,6.0,41,0.00,CLR,,0.00,WeatherDisplay:10.37,2013-01-17 16:40:00,
2013-01-17 10:50:00,11.2,-8.0,30.29,SW,226,2.0,4.0,41,0.00,CLR,,0.00,WeatherDisplay:10.37,2013-01-17 16:50:00,
2013-01-17 11:00:00,10.9,-8.2,30.29,WSW,246,2.0,6.0,41,0.00,CLR,,0.00,WeatherDisplay:10.37,2013-01-17 17:00:00,
2013-01-17 11:10:00,10.9,-8.2,30.29,WSW,239,0.0,4.0,41,0.00,CLR,,0.00,WeatherDisplay:10.37,2013-01-17 17:10:00,
2013-01-17 11:20:00,10.9,-8.2,30.29,SW,223,1.0,4.0,41,0.00,CLR,,0.00,WeatherDisplay:10.37,2013-01-17 17:20:00,
2013-01-17 11:30:00,11.1,-8.0,30.29,SW,217,1.0,4.0,41,0.00,CLR,,0.00,WeatherDisplay:10.37,2013-01-17 17:30:00,
2013-01-17 11:40:00,11.5,-7.7,30.29,WSW,250,2.0,4.0,41,0.00,CLR,,0.00,WeatherDisplay:10.37,2013-01-17 17:40:00,
2013-01-17 11:50:00,11.8,-7.4,30.29,WSW,254,3.0,5.0,41,0.00,CLR,,0.00,WeatherDisplay:10.37,2013-01-17 17:50:00,
2013-01-17 12:00:00,12.9,-6.5,30.29,West,268,2.0,6.0,41,0.00,CLR,,0.00,WeatherDisplay:10.37,2013-01-17 18:00:00,
2013-01-17 12:10:00,14.7,-1.1,30.29,WSW,244,2.0,5.0,49,0.00,CLR,,0.00,WeatherDisplay:10.37,2013-01-17 18:10:00,
2013-01-17 12:20:00,14.7,-1.5,30.29,West,276,3.0,6.0,48,0.00,CLR,,0.00,WeatherDisplay:10.37,2013-01-17 18:20:00,
2013-01-17 12:30:00,15.2,-1.4,30.29,West,261,3.0,6.0,47,0.00,CLR,,0.00,WeatherDisplay:10.37,2013-01-17 18:30:00,
2013-01-17 12:40:00,15.3,-1.4,30.29,West,275,3.0,6.0,47,0.00,CLR,,0.00,WeatherDisplay:10.37,2013-01-17 18:40:00,
2013-01-17 12:50:00,15.6,-1.1,30.29,West,273,3.0,9.0,47,0.00,CLR,,0.00,WeatherDisplay:10.37,2013-01-17 18:50:00,
2013-01-17 13:00:00,16.7,-0.5,30.29,West,275,3.0,6.0,46,0.00,CLR,,0.00,WeatherDisplay:10.37,2013-01-17 19:00:00,
2013-01-17 13:10:00,16.7,-0.5,30.29,WNW,283,2.0,6.0,46,0.00,CLR,,0.00,WeatherDisplay:10.37,2013-01-17 19:10:00,
2013-01-17 13:20:00,17.2,0.0,30.26,WNW,283,3.0,6.0,46,0.00,CLR,,0.00,WeatherDisplay:10.37,2013-01-17 19:20:00,
2013-01-17 13:30:00,17.6,0.3,30.26,West,279,3.0,6.0,46,0.00,CLR,,0.00,WeatherDisplay:10.37,2013-01-17 19:30:00,
2013-01-17 13:40:00,18.0,0.6,30.26,WNW,283,3.0,6.0,46,0.00,CLR,,0.00,WeatherDisplay:10.37,2013-01-17 19:40:00,
2013-01-17 13:50:00,18.3,0.5,30.26,West,275,5.0,8.0,45,0.00,CLR,,0.00,WeatherDisplay:10.37,2013-01-17 19:50:00,
2013-01-17 14:00:00,18.3,0.5,30.26,WNW,282,5.0,6.0,45,0.00,CLR,,0.00,WeatherDisplay:10.37,2013-01-17 20:00:00,
2013-01-17 14:10:00,18.5,0.7,30.26,WNW,295,3.0,6.0,45,0.00,CLR,,0.00,WeatherDisplay:10.37,2013-01-17 20:10:00,
2013-01-17 14:20:00,18.7,0.8,30.26,WNW,302,5.0,8.0,45,0.00,CLR,,0.00,WeatherDisplay:10.37,2013-01-17 20:20:00,
2013-01-17 14:30:00,18.9,1.0,30.26,WNW,290,5.0,6.0,45,0.00,CLR,,0.00,WeatherDisplay:10.37,2013-01-17 20:30:00,
2013-01-17 14:40:00,19.0,1.2,30.26,WNW,286,5.0,8.0,45,0.00,CLR,,0.00,WeatherDisplay:10.37,2013-01-17 20:40:00,
2013-01-17 14:50:00,18.9,1.0,30.26,WNW,296,2.0,8.0,45,0.00,CLR,,0.00,WeatherDisplay:10.37,2013-01-17 20:50:00,
2013-01-17 15:00:00,19.0,1.2,30.26,WNW,291,3.0,6.0,45,0.00,CLR,,0.00,WeatherDisplay:10.37,2013-01-17 21:00:00,
2013-01-17 15:10:00,18.8,1.0,30.26,WNW,283,3.0,6.0,45,0.00,CLR,,0.00,WeatherDisplay:10.37,2013-01-17 21:10:00,
2013-01-17 15:20:00,18.7,0.8,30.26,WNW,288,3.0,6.0,45,0.00,CLR,,0.00,WeatherDisplay:10.37,2013-01-17 21:20:00,
2013-01-17 15:30:00,18.7,0.9,30.26,West,279,3.0,6.0,45,0.00,CLR,,0.00,WeatherDisplay:10.37,2013-01-17 21:30:00,
2013-01-17 15:40:00,18.5,0.7,30.26,WNW,301,3.0,9.0,45,0.00,CLR,,0.00,WeatherDisplay:10.37,2013-01-17 21:40:00,
2013-01-17 15:50:00,18.5,0.7,30.26,WNW,298,3.0,6.0,45,0.00,CLR,,0.00,WeatherDisplay:10.37,2013-01-17 21:50:00,
2013-01-17 16:00:00,18.3,0.5,30.26,NW,306,2.0,6.0,45,0.00,CLR,,0.00,WeatherDisplay:10.37,2013-01-17 22:00:00,
2013-01-17 16:10:00,18.3,0.5,30.26,WNW,292,2.0,5.0,45,0.00,CLR,,0.00,WeatherDisplay:10.37,2013-01-17 22:10:00,
2013-01-17 16:20:00,18.0,0.2,30.29,WNW,292,2.0,6.0,45,0.00,CLR,,0.00,WeatherDisplay:10.37,2013-01-17 22:20:00,
2013-01-17 16:30:00,17.8,0.5,30.29,WNW,293,2.0,4.0,46,0.00,CLR,,0.00,WeatherDisplay:10.37,2013-01-17 22:30:00,
2013-01-17 16:40:00,17.6,0.3,30.29,West,276,2.0,4.0,46,0.00,CLR,,0.00,WeatherDisplay:10.37,2013-01-17 22:40:00,
2013-01-17 16:50:00,17.4,0.1,30.29,WNW,282,0.0,3.0,46,0.00,CLR,,0.00,WeatherDisplay:10.37,2013-01-17 22:50:00,
2013-01-17 17:00:00,17.1,0.3,30.29,WNW,297,0.0,0.0,47,0.00,CLR,,0.00,WeatherDisplay:10.37,2013-01-17 23:00:00,
2013-01-17 17:10:00,16.9,0.1,30.29,WNW,298,0.0,0.0,47,0.00,CLR,,0.00,WeatherDisplay:10.37,2013-01-17 23:10:00,
2013-01-17 17:20:00,16.7,-0.1,30.29,WNW,298,0.0,0.0,47,0.00,CLR,,0.00,WeatherDisplay:10.37,2013-01-17 23:20:00,
2013-01-17 17:30:00,16.2,-0.1,30.29,WNW,298,0.0,0.0,48,0.00,CLR,,0.00,WeatherDisplay:10.37,2013-01-17 23:30:00,
2013-01-17 17:40:00,15.5,-0.8,30.26,WNW,298,0.0,0.0,48,0.00,CLR,,0.00,WeatherDisplay:10.37,2013-01-17 23:40:00,
2013-01-17 17:50:00,15.1,-0.7,30.29,WNW,298,0.0,0.0,49,0.00,CLR,,0.00,WeatherDisplay:10.37,2013-01-17 23:50:00,
2013-01-17 18:00:00,14.7,-1.0,30.29,WNW,298,0.0,0.0,49,0.00,CLR,,0.00,WeatherDisplay:10.37,2013-01-18 00:00:00,
2013-01-17 18:10:00,14.7,-0.6,30.29,West,273,0.0,0.0,50,0.00,CLR,,0.00,WeatherDisplay:10.37,2013-01-18 00:10:00,
2013-01-17 18:20:00,14.7,-0.2,30.29,West,271,0.0,0.0,51,0.00,CLR,,0.00,WeatherDisplay:10.37,2013-01-18 00:20:00,
2013-01-17 18:30:00,14.9,0.4,30.29,West,280,0.0,0.0,52,0.00,CLR,,0.00,WeatherDisplay:10.37,2013-01-18 00:30:00,
2013-01-17 18:40:00,14.7,0.6,30.29,West,279,0.0,0.0,53,0.00,CLR,,0.00,WeatherDisplay:10.37,2013-01-18 00:40:00,
2013-01-17 18:50:00,14.5,0.9,30.29,West,280,0.0,0.0,54,0.00,CLR,,0.00,WeatherDisplay:10.37,2013-01-18 00:50:00,
2013-01-17 19:00:00,14.4,0.7,30.29,West,279,0.0,0.0,54,0.00,CLR,,0.00,WeatherDisplay:10.37,2013-01-18 01:00:00,
2013-01-17 19:10:00,14.4,0.7,30.29,West,280,0.0,0.0,54,0.00,CLR,,0.00,WeatherDisplay:10.37,2013-01-18 01:10:00,
2013-01-17 19:20:00,14.4,1.1,30.29,West,279,0.0,0.0,55,0.00,CLR,,0.00,WeatherDisplay:10.37,2013-01-18 01:20:00,
2013-01-17 19:30:00,14.5,1.3,30.29,West,280,0.0,0.0,55,0.00,CLR,,0.00,WeatherDisplay:10.37,2013-01-18 01:30:00,
2013-01-17 19:40:00,14.7,1.8,30.29,West,280,0.0,0.0,56,0.00,CLR,,0.00,WeatherDisplay:10.37,2013-01-18 01:40:00,
2013-01-17 19:50:00,14.7,1.8,30.26,West,279,0.0,0.0,56,0.00,CLR,,0.00,WeatherDisplay:10.37,2013-01-18 01:50:00,
2013-01-17 20:00:00,14.9,2.0,30.26,West,280,0.0,0.0,56,0.00,CLR,,0.00,WeatherDisplay:10.37,2013-01-18 02:00:00,
2013-01-17 20:10:00,15.1,2.2,30.26,West,279,0.0,0.0,56,0.00,CLR,,0.00,WeatherDisplay:10.37,2013-01-18 02:10:00,
2013-01-17 20:20:00,15.3,2.3,30.26,West,279,0.0,0.0,56,0.00,CLR,,0.00,WeatherDisplay:10.37,2013-01-18 02:20:00,
2013-01-17 20:30:00,15.4,2.9,30.26,West,280,0.0,0.0,57,0.00,CLR,,0.00,WeatherDisplay:10.37,2013-01-18 02:30:00,
2013-01-17 20:40:00,15.8,3.2,30.26,West,279,0.0,0.0,57,0.00,CLR,,0.00,WeatherDisplay:10.37,2013-01-18 02:40:00,
2013-01-17 20:50:00,16.0,3.0,30.26,West,280,0.0,0.0,56,0.00,CLR,,0.00,WeatherDisplay:10.37,2013-01-18 02:50:00,
2013-01-17 21:00:00,16.3,3.4,30.26,West,279,0.0,0.0,56,0.00,CLR,,0.00,WeatherDisplay:10.37,2013-01-18 03:00:00,
2013-01-17 21:10:00,16.7,3.7,30.26,West,280,0.0,0.0,56,0.00,CLR,,0.00,WeatherDisplay:10.37,2013-01-18 03:10:00,
2013-01-17 21:20:00,16.7,3.7,30.26,West,279,0.0,0.0,56,0.00,CLR,,0.00,WeatherDisplay:10.37,2013-01-18 03:20:00,
2013-01-17 21:30:00,16.8,3.8,30.26,West,279,0.0,0.0,56,0.00,CLR,,0.00,WeatherDisplay:10.37,2013-01-18 03:30:00,
2013-01-17 21:40:00,16.7,3.7,30.26,WSW,246,0.0,0.0,56,0.00,CLR,,0.00,WeatherDisplay:10.37,2013-01-18 03:40:00,
2013-01-17 21:50:00,16.7,3.7,30.26,WSW,240,0.0,3.0,56,0.00,CLR,,0.00,WeatherDisplay:10.37,2013-01-18 03:50:00,
2013-01-17 22:00:00,16.7,3.7,30.26,WSW,237,0.0,0.0,56,0.00,CLR,,0.00,WeatherDisplay:10.37,2013-01-18 04:00:00,
2013-01-17 22:10:00,16.7,3.7,30.23,SW,232,0.0,0.0,56,0.00,CLR,,0.00,WeatherDisplay:10.37,2013-01-18 04:10:00,
2013-01-17 22:20:00,16.7,3.7,30.23,SW,221,0.0,0.0,56,0.00,CLR,,0.00,WeatherDisplay:10.37,2013-01-18 04:20:00,
2013-01-17 22:30:00,16.7,3.7,30.23,SW,221,0.0,0.0,56,0.00,CLR,,0.00,WeatherDisplay:10.37,2013-01-18 04:30:00,
2013-01-17 22:40:00,16.9,3.9,30.23,SW,217,0.0,0.0,56,0.00,CLR,,0.00,WeatherDisplay:10.37,2013-01-18 04:40:00,
2013-01-17 22:50:00,16.9,4.3,30.23,SSW,211,0.0,0.0,57,0.00,CLR,,0.00,WeatherDisplay:10.37,2013-01-18 04:50:00,
2013-01-17 23:10:00,17.1,4.4,30.23,SSW,211,0.0,0.0,57,0.00,CLR,,0.00,WeatherDisplay:10.37,2013-01-18 05:10:00,
2013-01-17 23:20:00,17.2,4.6,30.20,SSW,211,0.0,3.0,57,0.00,CLR,,0.00,WeatherDisplay:10.37,2013-01-18 05:20:00,
2013-01-17 23:30:00,17.4,4.8,30.20,SSW,203,0.0,3.0,57,0.00,CLR,,0.00,WeatherDisplay:10.37,2013-01-18 05:30:00,
2013-01-17 23:40:00,17.2,4.6,30.20,SSE,168,0.0,3.0,57,0.00,CLR,,0.00,WeatherDisplay:10.37,2013-01-18 05:40:00,
2013-01-17 23:50:00,17.4,4.8,30.20,SSE,163,0.0,0.0,57,0.00,CLR,,0.00,WeatherDisplay:10.37,2013-01-18 05:50:00,